Time;durP1;ratioP1;P1;durP2;ratioP2;P2;SDS_P1;SDS_P2;PMS_P1;PMS_P2;Temp;Humidity;BMP_temperature;BMP_pressure;BME280_temperature;BME280_humidity;BME280_pressure;Samples;Min_cycle;Max_cycle;Signal;HPM_P1;HPM_P2
2021/10/27 00:00:45;;;;;;;529.13;483.02;;;14.30;78.40;;;13.55;100.00;100995.09;4989815;28;20449;-65
2021/10/27 00:03:14;;;;;;;525.67;479.77;;;14.30;78.00;;;13.48;100.00;100994.69;4990780;28;20924;-68
2021/10/27 00:05:42;;;;;;;525.95;479.70;;;14.20;78.00;;;13.47;100.00;100992.25;4990625;28;20516;-63
2021/10/27 00:08:10;;;;;;;519.38;473.27;;;14.20;78.10;;;13.48;100.00;100985.72;4990834;28;20425;-66
2021/10/27 00:10:38;;;;;;;533.05;486.80;;;14.20;78.10;;;13.55;100.00;100986.13;4989632;28;20836;-65
2021/10/27 00:13:06;;;;;;;539.20;492.95;;;14.20;77.90;;;13.62;100.00;100990.00;4990608;28;20457;-69
2021/10/27 00:15:36;;;;;;;525.65;479.45;;;14.30;77.70;;;13.68;100.00;100980.63;4990689;28;20418;-62
2021/10/27 00:18:04;;;;;;;534.88;488.65;;;14.40;77.30;;;13.74;100.00;100994.91;4990797;28;20414;-65
2021/10/27 00:20:32;;;;;;;540.50;494.10;;;14.40;77.10;;;13.80;100.00;100987.47;4989777;28;20417;-66
2021/10/27 00:23:00;;;;;;;546.25;499.90;;;14.50;77.00;;;13.79;100.00;100991.28;4990337;28;20488;-66
2021/10/27 00:25:28;;;;;;;544.58;498.27;;;14.50;76.20;;;13.73;100.00;100992.50;4990286;28;20462;-64
2021/10/27 00:27:56;;;;;;;540.85;494.38;;;14.50;76.60;;;13.66;100.00;100982.88;4990400;28;20856;-63
2021/10/27 00:30:25;;;;;;;540.13;494.05;;;14.50;76.60;;;13.63;100.00;100983.47;4989511;28;20905;-64
2021/10/27 00:32:54;;;;;;;540.92;494.70;;;14.40;76.50;;;13.62;100.00;100987.28;4990476;28;20542;-66
2021/10/27 00:35:22;;;;;;;537.78;491.70;;;14.40;76.50;;;13.68;100.00;100982.53;4990437;28;20967;-62
2021/10/27 00:37:50;;;;;;;542.08;495.75;;;14.40;76.80;;;13.80;100.00;100976.59;4990353;28;20900;-65
2021/10/27 00:40:18;;;;;;;561.92;515.20;;;14.50;77.10;;;13.96;100.00;100984.06;4989556;28;20524;-63
2021/10/27 00:42:46;;;;;;;567.58;520.55;;;14.70;76.40;;;14.00;100.00;100974.19;4990339;28;20487;-63
2021/10/27 00:45:14;;;;;;;573.65;526.72;;;14.80;76.20;;;14.03;100.00;100972.78;4990290;28;20422;-63
2021/10/27 00:47:42;;;;;;;582.45;535.45;;;14.80;76.20;;;14.14;100.00;100965.97;4990350;28;20462;-66
2021/10/27 00:50:12;;;;;;;585.57;538.47;;;14.90;76.10;;;14.29;100.00;100962.09;4989488;28;20450;-66
2021/10/27 00:52:40;;;;;;;593.80;546.47;;;15.00;75.80;;;14.53;100.00;100962.56;4992975;28;20429;-65
2021/10/27 00:55:09;;;;;;;612.47;564.97;;;15.30;75.60;;;14.67;100.00;100968.72;4994031;28;20414;-67
2021/10/27 00:57:38;;;;;;;617.92;570.17;;;15.40;74.70;;;14.80;100.00;100967.81;4994021;28;20410;-65
2021/10/27 01:00:09;;;;;;;629.95;581.88;;;15.50;74.20;;;14.94;100.00;100965.78;4993452;28;20829;-67
2021/10/27 01:02:37;;;;;;;642.50;593.95;;;15.70;73.60;;;15.10;100.00;100966.16;4993778;28;20457;-67
2021/10/27 01:05:07;;;;;;;632.90;585.10;;;15.80;73.30;;;15.09;100.00;100964.53;4993852;28;20422;-65
2021/10/27 01:07:36;;;;;;;640.00;591.90;;;15.80;72.50;;;15.04;100.00;100960.06;4993894;28;20434;-67
2021/10/27 01:10:06;;;;;;;649.22;600.70;;;15.80;72.80;;;15.01;100.00;100959.88;4993070;28;20464;-65
2021/10/27 01:12:34;;;;;;;632.20;584.05;;;15.80;73.10;;;14.98;100.00;100957.78;4993798;28;20500;-67
2021/10/27 01:15:04;;;;;;;637.50;589.50;;;15.70;72.80;;;14.92;100.00;100968.03;4993784;28;20836;-62
2021/10/27 01:17:33;;;;;;;632.53;584.40;;;15.70;72.60;;;14.84;100.00;100968.78;4994012;28;20509;-65
2021/10/27 01:20:04;;;;;;;625.80;577.87;;;15.60;72.50;;;14.58;100.00;100968.69;4992848;28;20900;-64
2021/10/27 01:22:35;;;;;;;614.33;566.53;;;15.40;72.10;;;14.32;100.00;100975.06;4993684;28;20509;-65
2021/10/27 01:25:04;;;;;;;595.00;547.65;;;15.10;73.40;;;14.29;100.00;100967.53;4993605;28;20410;-64
2021/10/27 01:27:36;;;;;;;590.60;543.53;;;15.10;74.40;;;14.30;100.00;100967.19;4993369;28;20466;-68
2021/10/27 01:30:05;;;;;;;588.05;540.75;;;15.10;74.60;;;14.27;100.00;100965.09;4992653;28;20426;-66
2021/10/27 01:32:37;;;;;;;585.35;538.00;;;15.00;74.70;;;14.19;100.00;100958.47;4993322;28;20858;-68
2021/10/27 01:35:09;;;;;;;588.33;540.83;;;15.00;74.70;;;14.02;100.00;100961.09;4993231;28;20519;-66
2021/10/27 01:37:39;;;;;;;583.63;536.30;;;14.80;74.40;;;13.82;100.00;100968.94;4993325;28;20453;-64
2021/10/27 01:40:10;;;;;;;586.50;539.17;;;14.60;74.90;;;13.73;100.00;100970.78;4992630;28;20453;-66
2021/10/27 01:42:38;;;;;;;579.00;532.10;;;14.50;75.70;;;13.67;100.00;100964.66;4993151;28;20418;-64
2021/10/27 01:45:08;;;;;;;576.65;529.47;;;14.40;76.10;;;13.51;100.00;100955.22;4993362;28;20410;-67
2021/10/27 01:47:36;;;;;;;568.90;521.88;;;14.40;76.40;;;13.39;100.00;100965.81;4992987;28;20496;-65
2021/10/27 01:50:07;;;;;;;565.50;518.42;;;14.20;76.80;;;13.34;100.00;100961.31;4992440;28;20855;-66
2021/10/27 01:52:35;;;;;;;565.15;518.05;;;14.10;77.30;;;13.35;100.00;100965.63;4992974;28;20876;-67
2021/10/27 01:55:03;;;;;;;568.47;521.38;;;14.10;77.80;;;13.36;100.00;100961.00;4993028;28;20414;-63
2021/10/27 01:57:31;;;;;;;554.63;507.48;;;14.20;78.30;;;13.40;100.00;100962.00;4993057;28;20455;-65
2021/10/27 01:59:59;;;;;;;557.25;510.48;;;14.20;77.40;;;13.38;100.00;100962.28;4992245;28;20414;-65
2021/10/27 02:02:27;;;;;;;551.40;504.40;;;14.20;77.00;;;13.36;100.00;100959.09;4992452;28;20457;-66
2021/10/27 02:04:55;;;;;;;544.30;497.55;;;14.20;76.80;;;13.38;100.00;100959.56;4992221;28;20419;-64
2021/10/27 02:07:25;;;;;;;543.28;496.40;;;14.10;77.00;;;13.37;100.00;100958.00;4992556;28;20446;-67
2021/10/27 02:09:53;;;;;;;555.30;508.23;;;14.10;76.20;;;13.46;100.00;100952.63;4992061;28;20446;-64
2021/10/27 02:12:21;;;;;;;559.78;512.78;;;14.20;77.00;;;13.68;100.00;100949.94;4992597;28;20552;-67
2021/10/27 02:14:49;;;;;;;569.92;522.88;;;14.40;75.80;;;13.86;100.00;100948.19;4992678;28;20948;-63
2021/10/27 02:17:17;;;;;;;587.20;539.80;;;14.60;76.30;;;14.07;100.00;100944.63;4992651;28;20904;-64
2021/10/27 02:19:45;;;;;;;583.95;536.50;;;14.80;75.20;;;14.04;100.00;100945.25;4991637;28;20450;-67
2021/10/27 02:22:13;;;;;;;581.85;534.60;;;14.80;74.00;;;13.94;100.00;100945.53;4992306;28;20500;-67
2021/10/27 02:24:42;;;;;;;578.23;531.27;;;14.70;73.90;;;13.89;100.00;100947.56;4992415;28;20880;-67
2021/10/27 02:27:10;;;;;;;576.35;529.30;;;14.60;74.10;;;13.86;100.00;100940.81;4992412;28;20517;-65
2021/10/27 02:29:38;;;;;;;593.83;546.20;;;14.60;74.20;;;13.90;100.00;100941.00;4991604;28;20480;-65
2021/10/27 02:32:07;;;;;;;580.38;532.92;;;14.70;74.30;;;13.87;100.00;100945.16;4992052;28;20453;-65
2021/10/27 02:34:36;;;;;;;571.42;524.45;;;14.60;73.80;;;13.79;100.00;100940.47;4992123;28;20422;-66
2021/10/27 02:37:05;;;;;;;579.60;532.05;;;14.50;74.20;;;13.73;100.00;100952.56;4992163;28;20489;-63
2021/10/27 02:39:33;;;;;;;567.25;520.10;;;14.50;74.90;;;13.74;100.00;100953.38;4991425;28;20457;-66
2021/10/27 02:42:02;;;;;;;573.40;526.00;;;14.40;74.90;;;13.66;100.00;100949.44;4991963;28;20526;-65
2021/10/27 02:44:30;;;;;;;563.60;516.50;;;14.40;75.00;;;13.65;100.00;100955.97;4992237;28;20461;-67
2021/10/27 02:46:58;;;;;;;573.13;525.78;;;14.40;75.60;;;13.71;100.00;100951.25;4991940;28;20966;-66
2021/10/27 02:49:26;;;;;;;581.15;533.92;;;14.40;75.30;;;13.65;100.00;100956.78;4991598;28;20512;-67
2021/10/27 02:51:54;;;;;;;574.47;527.33;;;14.40;74.90;;;13.50;100.00;100959.03;4991360;28;20468;-67
2021/10/27 02:54:22;;;;;;;571.97;524.80;;;14.30;75.20;;;13.31;100.00;100955.69;4992012;28;20468;-64
2021/10/27 02:56:50;;;;;;;562.43;515.40;;;14.10;75.70;;;13.25;100.00;100965.03;4992005;28;20449;-64
2021/10/27 02:59:20;;;;;;;548.60;501.80;;;14.00;76.70;;;13.20;100.00;100960.50;4991575;28;20462;-67
2021/10/27 03:01:48;;;;;;;557.45;510.50;;;14.00;76.90;;;13.29;100.00;100961.41;4991042;28;20449;-66
2021/10/27 03:04:16;;;;;;;548.60;502.00;;;14.10;76.70;;;13.34;100.00;100960.50;4991629;28;20422;-65
2021/10/27 03:06:44;;;;;;;550.05;502.95;;;14.10;76.30;;;13.39;100.00;100954.97;4991576;28;20975;-63
2021/10/27 03:09:12;;;;;;;557.80;510.65;;;14.10;76.20;;;13.50;100.00;100956.31;4991641;28;20454;-65
2021/10/27 03:11:40;;;;;;;561.40;514.30;;;14.20;76.20;;;13.63;100.00;100950.88;4990877;28;20492;-64
2021/10/27 03:14:09;;;;;;;562.85;515.85;;;14.40;75.60;;;13.65;100.00;100956.78;4991228;28;20480;-66
2021/10/27 03:16:38;;;;;;;565.13;518.40;;;14.40;75.40;;;13.64;100.00;100952.50;4991529;28;20835;-65
2021/10/27 03:19:06;;;;;;;567.05;520.20;;;14.40;75.20;;;13.56;100.00;100947.75;4991478;28;20476;-64
2021/10/27 03:21:35;;;;;;;562.80;515.85;;;14.40;75.20;;;13.50;100.00;100942.75;4990590;28;20422;-63
2021/10/27 03:24:03;;;;;;;565.40;518.60;;;14.30;75.30;;;13.45;100.00;100942.88;4991249;28;20485;-65
2021/10/27 03:26:31;;;;;;;563.05;515.92;;;14.30;75.90;;;13.45;100.00;100951.03;4991170;28;20426;-65
2021/10/27 03:28:59;;;;;;;566.35;519.28;;;14.30;76.40;;;13.51;100.00;100956.03;4991234;28;20426;-63
2021/10/27 03:31:27;;;;;;;561.33;514.42;;;14.30;76.40;;;13.58;100.00;100944.75;4990291;28;20426;-64
2021/10/27 03:33:58;;;;;;;560.00;513.13;;;14.30;76.00;;;13.65;100.00;100945.94;4991075;28;20418;-64
2021/10/27 03:36:26;;;;;;;571.40;524.45;;;14.40;75.90;;;13.73;100.00;100949.03;4991138;28;20505;-64
2021/10/27 03:38:54;;;;;;;578.72;531.67;;;14.50;75.70;;;13.72;100.00;100940.06;4991033;28;20426;-66
2021/10/27 03:41:22;;;;;;;572.78;525.85;;;14.50;75.30;;;13.71;100.00;100945.81;4990341;28;20426;-64
2021/10/27 03:43:51;;;;;;;581.38;534.08;;;14.50;75.10;;;13.70;100.00;100934.16;4991294;28;20524;-64
2021/10/27 03:46:19;;;;;;;578.22;530.97;;;14.50;75.20;;;13.79;100.00;100937.75;4990857;28;20454;-66
2021/10/27 03:48:47;;;;;;;580.63;533.47;;;14.50;74.70;;;13.74;100.00;100937.84;4990949;28;20430;-66
2021/10/27 03:51:16;;;;;;;575.17;528.03;;;14.50;74.40;;;13.68;100.00;100944.50;4990085;28;20414;-67
2021/10/27 03:53:45;;;;;;;570.90;523.92;;;14.50;74.50;;;13.62;100.00;100949.25;4991007;28;20885;-67
2021/10/27 03:56:13;;;;;;;567.53;520.53;;;14.40;74.70;;;13.59;100.00;100941.72;4990762;28;20429;-65
2021/10/27 03:58:42;;;;;;;570.58;523.67;;;14.40;74.80;;;13.58;100.00;100950.19;4990875;28;20461;-66
2021/10/27 04:01:10;;;;;;;568.25;521.25;;;14.40;74.80;;;13.59;100.00;100949.88;4989915;28;20480;-64
2021/10/27 04:03:38;;;;;;;562.00;515.13;;;14.40;74.70;;;13.59;100.00;100946.34;4990841;28;20433;-66
2021/10/27 04:06:06;;;;;;;549.63;503.07;;;14.40;74.50;;;13.61;100.00;100947.66;4990756;28;20539;-64
2021/10/27 04:08:35;;;;;;;565.85;518.75;;;14.40;74.50;;;13.63;100.00;100947.34;4990577;28;20497;-66
2021/10/27 04:11:04;;;;;;;559.42;512.50;;;14.40;75.00;;;13.64;100.00;100946.25;4989857;28;20418;-66
2021/10/27 04:13:33;;;;;;;572.28;525.28;;;14.40;74.20;;;13.69;100.00;100954.28;4990604;28;20414;-67
2021/10/27 04:16:01;;;;;;;572.42;525.25;;;14.50;74.10;;;13.75;100.00;100954.94;4990787;28;20476;-66
2021/10/27 04:18:29;;;;;;;572.20;525.25;;;14.50;73.70;;;13.79;100.00;100943.16;4990482;28;20491;-65
2021/10/27 04:20:58;;;;;;;576.15;528.95;;;14.50;73.60;;;13.76;100.00;100941.06;4989562;28;20445;-63
2021/10/27 04:23:26;;;;;;;570.25;523.30;;;14.60;73.50;;;13.69;100.00;100948.84;4990544;28;20419;-66
2021/10/27 04:25:56;;;;;;;587.35;540.08;;;14.50;73.50;;;13.57;100.00;100948.56;4990575;28;20418;-68
2021/10/27 04:28:24;;;;;;;568.15;521.33;;;14.40;73.70;;;13.39;100.00;100944.09;4994504;28;20465;-67
2021/10/27 04:30:52;;;;;;;563.47;516.50;;;14.20;74.20;;;13.30;100.00;100943.22;4993582;28;20415;-63
2021/10/27 04:33:21;;;;;;;555.13;508.40;;;14.10;75.00;;;13.26;100.00;100945.72;4994513;28;20530;-65
2021/10/27 04:35:52;;;;;;;558.15;511.35;;;14.10;75.50;;;13.29;100.00;100938.88;4994483;28;20522;-67
2021/10/27 04:38:22;;;;;;;553.35;506.83;;;14.10;75.50;;;13.29;100.00;100939.69;4994306;28;20418;-67
2021/10/27 04:40:50;;;;;;;552.15;505.25;;;14.10;75.60;;;13.27;100.00;100941.91;4993673;28;20418;-63
2021/10/27 04:43:20;;;;;;;558.00;511.30;;;14.10;75.70;;;13.29;100.00;100944.31;4994317;28;20469;-65
2021/10/27 04:45:48;;;;;;;556.38;509.63;;;14.10;75.50;;;13.25;100.00;100933.28;4994187;28;20417;-66
2021/10/27 04:48:16;;;;;;;556.13;509.30;;;14.00;75.30;;;13.20;100.00;100932.56;4994145;28;20517;-62
2021/10/27 04:50:44;;;;;;;544.08;497.38;;;14.00;75.40;;;13.16;100.00;100934.28;4993168;28;20500;-65
2021/10/27 04:53:17;;;;;;;549.95;503.17;;;14.00;75.60;;;13.11;100.00;100938.72;4994183;28;20464;-67
2021/10/27 04:55:46;;;;;;;539.28;492.88;;;13.90;75.60;;;13.10;100.00;100923.50;4994281;28;20410;-66
2021/10/27 04:58:15;;;;;;;535.08;488.77;;;13.90;75.80;;;13.19;100.00;100929.06;4993887;28;20935;-66
2021/10/27 05:00:45;;;;;;;534.10;487.77;;;14.00;75.70;;;13.24;100.00;100926.22;4992980;28;20470;-67
2021/10/27 05:03:13;;;;;;;538.53;491.88;;;14.00;75.20;;;13.26;100.00;100924.00;4994124;28;20433;-64
2021/10/27 05:05:46;;;;;;;537.08;490.50;;;14.00;75.00;;;13.18;100.00;100927.44;4993936;28;20477;-65
2021/10/27 05:08:17;;;;;;;539.70;493.15;;;14.00;74.80;;;13.10;100.00;100931.66;4993854;28;20501;-65
2021/10/27 05:10:46;;;;;;;540.85;494.25;;;13.90;75.10;;;13.10;100.00;100930.88;4992940;28;20509;-67
2021/10/27 05:13:14;;;;;;;535.55;489.35;;;13.90;75.40;;;13.11;100.00;100935.19;4993776;28;20469;-67
2021/10/27 05:15:44;;;;;;;537.05;490.70;;;13.90;75.50;;;13.14;100.00;100938.09;4993612;28;20422;-66
2021/10/27 05:18:12;;;;;;;538.95;492.45;;;14.00;75.60;;;13.18;100.00;100929.34;4993717;28;20410;-65
2021/10/27 05:20:39;;;;;;;548.88;502.17;;;14.00;75.60;;;13.27;100.00;100930.22;4992709;28;20488;-66
2021/10/27 05:23:07;;;;;;;541.38;494.75;;;14.00;75.20;;;13.32;100.00;100925.50;4993559;28;20458;-64
2021/10/27 05:25:36;;;;;;;550.70;504.17;;;14.10;75.00;;;13.38;100.00;100928.91;4993397;28;20453;-63
2021/10/27 05:28:04;;;;;;;554.25;507.63;;;14.10;74.60;;;13.39;100.00;100933.22;4993387;28;20489;-66
2021/10/27 05:30:32;;;;;;;551.97;505.40;;;14.20;74.60;;;13.41;100.00;100928.28;4992465;28;20411;-68
2021/10/27 05:33:02;;;;;;;553.67;506.83;;;14.20;74.50;;;13.44;100.00;100930.38;4993522;28;20422;-67
2021/10/27 05:35:32;;;;;;;539.50;493.10;;;14.20;74.50;;;13.48;100.00;100934.09;4993412;28;20445;-65
2021/10/27 05:38:01;;;;;;;544.13;497.77;;;14.20;74.60;;;13.54;100.00;100930.97;4993161;28;20416;-67
2021/10/27 05:40:29;;;;;;;556.03;509.33;;;14.30;74.40;;;13.57;100.00;100930.38;4992504;28;20831;-67
2021/10/27 05:42:57;;;;;;;544.80;498.40;;;14.40;74.40;;;13.58;100.00;100920.31;4993143;28;20904;-66
2021/10/27 05:45:27;;;;;;;553.40;506.70;;;14.40;74.30;;;13.60;100.00;100927.03;4993308;28;20414;-66
2021/10/27 05:47:59;;;;;;;548.10;501.73;;;14.40;74.30;;;13.67;100.00;100946.44;4993006;28;20474;-67
2021/10/27 05:50:32;;;;;;;561.67;515.10;;;14.50;74.30;;;13.79;100.00;100943.16;4992226;28;20885;-66
2021/10/27 05:55:47;;;;;;;555.33;508.77;;;14.60;73.70;;;13.79;100.00;100937.75;4993293;28;20409;-68
2021/10/27 05:58:15;;;;;;;562.95;516.20;;;14.60;73.50;;;13.69;100.00;100943.41;4993075;28;20899;-67
2021/10/27 06:00:45;;;;;;;558.53;511.88;;;14.50;73.70;;;13.60;100.00;100946.06;4991256;28;20836;-65
2021/10/27 06:03:14;;;;;;;548.70;502.15;;;14.40;73.80;;;13.57;100.00;100945.84;4992678;28;20462;-66
2021/10/27 06:05:44;;;;;;;533.88;487.63;;;14.30;74.00;;;13.53;100.00;100950.28;4992761;28;20509;-66
2021/10/27 06:08:14;;;;;;;523.33;477.30;;;14.30;74.40;;;13.51;100.00;100953.31;4992805;28;20998;-67
2021/10/27 06:10:42;;;;;;;524.58;478.17;;;14.30;74.30;;;13.50;100.00;100951.69;4992176;28;20426;-69
2021/10/27 06:13:14;;;;;;;517.47;471.33;;;14.20;74.10;;;13.45;100.00;100943.69;4992723;28;20509;-67
2021/10/27 06:15:42;;;;;;;525.75;479.10;;;14.20;74.00;;;13.35;100.00;100943.88;4992648;28;20426;-63
2021/10/27 06:18:10;;;;;;;516.88;470.67;;;14.10;74.10;;;13.24;100.00;100941.72;4992794;28;20517;-64
2021/10/27 06:20:38;;;;;;;506.27;460.38;;;14.00;74.50;;;13.14;100.00;100948.97;4991720;28;20433;-66
2021/10/27 06:23:08;;;;;;;501.60;455.65;;;13.90;75.10;;;13.04;100.00;100951.84;4992665;28;20426;-65
2021/10/27 06:25:36;;;;;;;497.60;451.73;;;13.80;75.20;;;13.01;100.00;100952.44;4992405;28;20498;-64
2021/10/27 06:28:08;;;;;;;489.13;443.37;;;13.80;75.70;;;13.05;100.00;100955.38;4992226;28;20426;-66
2021/10/27 06:30:44;;;;;;;495.83;449.63;;;13.80;75.70;;;13.11;100.00;100962.34;4991386;28;20450;-64
2021/10/27 06:33:25;;;;;;;495.13;449.13;;;13.80;75.70;;;13.12;100.00;100953.09;4992330;28;20426;-65
2021/10/27 06:35:58;;;;;;;502.95;456.52;;;13.90;75.50;;;13.03;100.00;100960.31;4992415;28;20422;-64
2021/10/27 06:46:40;;;;;;;480.48;434.92;;;13.40;76.80;;;12.63;100.00;100974.66;4992272;28;20457;-66
2021/10/27 06:49:08;;;;;;;476.83;431.52;;;13.40;76.50;;;12.52;100.00;100968.63;4991604;28;20470;-67
2021/10/27 06:51:36;;;;;;;481.63;436.13;;;13.30;76.60;;;12.57;100.00;100972.03;4991107;28;20516;-67
2021/10/27 06:54:06;;;;;;;497.80;451.67;;;13.30;77.40;;;12.76;100.00;100976.59;4991919;28;20480;-68
2021/10/27 06:56:35;;;;;;;497.75;451.75;;;13.50;77.40;;;12.94;100.00;100975.69;4991966;28;20456;-68
2021/10/27 06:59:09;;;;;;;520.35;474.15;;;13.70;76.60;;;13.00;100.00;100979.91;4991783;28;20762;-67
2021/10/27 07:02:06;;;;;;;520.57;474.27;;;13.80;75.60;;;12.92;100.00;100977.91;4990763;28;20450;-63
2021/10/27 07:15:37;;;;;;;498.73;452.42;;;13.40;76.90;;;12.91;100.00;100987.16;4991622;28;20456;-63
2021/10/27 07:18:06;;;;;;;511.30;464.70;;;13.70;76.50;;;13.27;100.00;100987.25;4991560;28;20510;-66
2021/10/27 07:20:34;;;;;;;526.67;480.00;;;14.10;75.80;;;13.70;100.00;100996.66;4990600;28;20466;-65
2021/10/27 07:23:03;;;;;;;544.07;496.80;;;14.60;74.60;;;14.11;100.00;100999.22;4991357;28;20418;-65
2021/10/27 07:25:35;;;;;;;569.22;521.58;;;15.00;73.70;;;14.43;100.00;100998.19;4991415;28;20414;-62
2021/10/27 07:28:04;;;;;;;591.23;542.00;;;15.40;72.70;;;14.83;100.00;101001.78;4991190;28;20550;-64
2021/10/27 07:30:32;;;;;;;620.90;570.95;;;15.70;71.60;;;15.14;100.00;100997.88;4990231;28;20525;-66
2021/10/27 07:33:01;;;;;;;629.00;579.60;;;16.10;71.10;;;15.46;100.00;101010.31;4991356;28;20418;-66
2021/10/27 07:35:34;;;;;;;645.95;597.45;;;16.40;70.30;;;15.78;100.00;101009.09;4991273;28;20461;-66
2021/10/27 07:40:50;;;;;;;697.78;648.47;;;17.10;68.70;;;16.42;100.00;101010.03;4990386;28;20805;-63
2021/10/27 07:43:21;;;;;;;710.38;660.97;;;17.40;68.00;;;16.68;100.00;101010.03;4991008;28;20430;-65
2021/10/27 07:45:49;;;;;;;733.33;683.43;;;17.60;67.30;;;16.84;100.00;101011.88;4991057;28;20418;-63
2021/10/27 07:48:18;;;;;;;744.78;694.40;;;17.90;67.10;;;16.98;100.00;101016.34;4991014;28;20521;-65
2021/10/27 07:50:47;;;;;;;747.20;696.90;;;18.10;66.90;;;17.18;100.00;101021.88;4990331;28;20422;-64
2021/10/27 07:53:16;;;;;;;756.80;704.28;;;18.20;66.00;;;17.34;100.00;101022.91;4990796;28;20418;-65
2021/10/27 07:55:46;;;;;;;768.75;713.08;;;18.20;65.30;;;17.49;100.00;101035.22;4990781;28;20522;-67
2021/10/27 07:58:16;;;;;;;769.22;718.28;;;18.30;65.90;;;17.55;100.00;101033.13;4990927;28;20418;-65
2021/10/27 08:00:45;;;;;;;777.88;726.90;;;18.30;66.10;;;17.48;100.00;101039.06;4989450;28;20473;-66
2021/10/27 08:03:14;;;;;;;772.30;721.50;;;18.20;66.40;;;17.48;100.00;101041.81;4990734;28;20415;-67
2021/10/27 08:05:43;;;;;;;775.35;724.25;;;18.20;67.10;;;17.58;100.00;101037.91;4990686;28;20421;-69
2021/10/27 08:08:14;;;;;;;788.42;737.20;;;18.30;66.30;;;17.73;100.00;101034.59;4990556;28;20446;-68
2021/10/27 08:10:43;;;;;;;785.40;734.28;;;18.40;66.20;;;17.85;100.00;101042.88;4989787;28;20428;-66
2021/10/27 08:13:12;;;;;;;783.67;732.63;;;18.50;65.90;;;17.97;100.00;101048.44;4990757;28;20427;-67
2021/10/27 08:15:41;;;;;;;796.42;744.88;;;18.70;65.60;;;18.15;100.00;101046.38;4990737;28;20418;-66
2021/10/27 08:18:12;;;;;;;797.05;745.63;;;18.80;66.30;;;18.33;100.00;101045.09;4990422;28;20414;-67
2021/10/27 08:20:40;;;;;;;807.97;756.20;;;19.00;64.80;;;18.51;100.00;101049.31;4989605;28;20454;-65
2021/10/27 08:23:10;;;;;;;822.67;770.70;;;19.20;64.60;;;18.74;100.00;101052.44;4990567;28;20492;-69
2021/10/27 08:25:42;;;;;;;825.63;773.53;;;19.40;65.10;;;18.98;100.00;101055.22;4990406;28;20510;-65
2021/10/27 08:28:15;;;;;;;840.42;787.92;;;19.60;62.90;;;19.13;100.00;101046.34;4990511;28;20754;-68
2021/10/27 08:30:50;;;;;;;851.72;799.03;;;19.80;63.00;;;19.33;100.00;101052.88;4989418;28;20487;-70
2021/10/27 08:33:34;;;;;;;863.75;810.50;;;20.00;62.10;;;19.51;100.00;101051.53;4990396;28;20461;-68
2021/10/27 08:36:02;;;;;;;880.60;826.83;;;20.20;61.10;;;19.82;100.00;101057.19;4990317;28;20480;-66
2021/10/27 08:38:31;;;;;;;877.78;824.13;;;20.50;60.20;;;20.08;100.00;101057.59;4990468;28;20446;-69
2021/10/27 08:41:01;;;;;;;887.93;833.73;;;20.70;59.40;;;20.36;100.00;101062.34;4989364;28;20414;-67
2021/10/27 08:43:30;;;;;;;903.65;849.20;;;21.00;60.30;;;20.56;100.00;101058.56;4990533;28;20505;-68
2021/10/27 08:46:01;;;;;;;910.10;855.38;;;21.20;59.40;;;20.67;90.01;101054.94;4990189;28;20496;-70
2021/10/27 08:48:31;;;;;;;917.65;862.60;;;21.40;56.20;;;20.78;88.62;101057.19;4990079;28;20438;-69
2021/10/27 08:51:03;;;;;;;919.10;864.03;;;21.50;56.30;;;20.86;88.21;101054.28;4989479;28;20888;-68
2021/10/27 08:53:33;;;;;;;928.75;873.45;;;21.60;56.30;;;20.96;87.44;101052.97;4990199;28;20480;-69
2021/10/27 08:56:03;;;;;;;935.42;879.63;;;21.70;56.10;;;21.09;90.18;101057.25;4989624;28;20509;-66
2021/10/27 08:58:36;;;;;;;943.90;888.00;;;21.90;56.80;;;21.23;89.50;101054.84;4974575;28;20418;-68
2021/10/27 09:01:10;;;;;;;943.72;887.75;;;22.00;56.70;;;21.30;91.47;101060.53;4969774;28;20849;-67
2021/10/27 09:04:08;;;;;;;945.85;889.75;;;22.10;57.00;;;21.39;92.60;101060.34;4970449;28;20420;-67
2021/10/27 09:06:41;;;;;;;951.53;895.03;;;22.10;57.20;;;21.42;98.95;101063.19;4969094;28;20419;-67
2021/10/27 09:09:35;;;;;;;951.35;895.00;;;22.20;58.30;;;21.46;100.00;101061.31;4969407;28;20852;-68
2021/10/27 09:15:40;;;;;;;957.28;900.50;;;22.40;59.00;;;21.66;100.00;101059.41;4973686;28;20922;-68
2021/10/27 09:35:59;;;;;;;983.90;926.63;;;22.90;56.70;;;22.33;88.44;101064.47;4973936;28;20458;-66
2021/10/27 09:55:57;;;;;;;1010.78;952.58;;;23.60;55.70;;;23.02;80.43;101059.06;4914036;29;20771;-67
2021/10/27 10:04:11;;;;;;;1009.17;950.78;;;23.80;55.10;;;23.25;80.65;101060.66;4973656;28;20909;-70
2021/10/27 10:06:42;;;;;;;1017.50;958.80;;;23.90;55.50;;;23.38;79.60;101050.22;4972853;28;20851;-69
2021/10/27 10:09:13;;;;;;;1015.40;957.10;;;24.00;55.30;;;23.41;80.94;101057.78;4973368;28;20443;-70
2021/10/27 10:11:42;;;;;;;1025.65;966.88;;;24.10;55.60;;;23.41;81.63;101045.97;4972555;28;20416;-68
2021/10/27 10:14:13;;;;;;;1027.72;969.00;;;24.10;55.70;;;23.49;80.35;101039.38;4973275;28;20426;-69
2021/10/27 10:16:46;;;;;;;1033.38;974.17;;;24.20;55.30;;;23.56;77.73;101042.25;4973244;28;20423;-68
2021/10/27 10:19:18;;;;;;;1033.50;974.33;;;24.30;54.50;;;23.61;74.95;101042.72;4973026;28;20961;-68
2021/10/27 10:21:51;;;;;;;1041.60;982.10;;;24.40;53.90;;;23.67;77.91;101044.00;4972503;28;20519;-67
2021/10/27 10:24:40;;;;;;;1036.15;976.80;;;24.40;54.80;;;23.64;77.85;101036.47;4972014;28;20432;-72
2021/10/27 10:27:14;;;;;;;1039.78;980.45;;;24.40;54.90;;;23.80;77.78;101039.81;4973129;28;20883;-68
2021/10/27 10:29:57;;;;;;;1044.88;985.35;;;24.50;54.80;;;24.01;70.96;101035.78;4971706;28;20446;-67
2021/10/27 10:32:40;;;;;;;1045.07;985.58;;;24.70;52.60;;;24.14;68.17;101042.66;4972723;28;20954;-69
2021/10/27 10:35:22;;;;;;;1053.05;993.22;;;24.90;51.80;;;24.39;66.03;101036.25;4973161;28;20826;-68
2021/10/27 10:38:03;;;;;;;1055.47;995.47;;;25.10;51.10;;;24.51;66.08;101040.72;4972842;28;20490;-65
2021/10/27 10:44:22;;;;;;;1061.97;999.90;;;25.40;49.30;;;24.78;61.53;101022.03;4963980;28;20412;-66
2021/10/27 11:02:20;;;;;;;1073.70;999.90;;;26.00;48.80;;;25.27;58.53;101010.63;4963004;28;20919;-72
2021/10/27 11:25:07;;;;;;;1075.10;999.90;;;26.00;51.80;;;25.25;67.18;100988.88;4954917;28;20416;-67
2021/10/27 11:37:16;;;;;;;1078.60;999.90;;;26.00;52.20;;;25.16;66.73;100987.63;4971954;28;20475;-68
2021/10/27 11:39:31;;;;;;;1065.50;999.90;;;25.70;53.10;;;24.80;76.59;100973.50;4971690;28;20819;-68
2021/10/27 11:42:07;;;;;;;1061.55;999.90;;;25.60;55.00;;;24.89;74.54;100973.19;4971570;28;20428;-67
2021/10/27 11:44:43;;;;;;;1061.25;999.90;;;25.70;54.30;;;24.95;74.63;100971.66;4971658;28;20514;-71
2021/10/27 11:47:15;;;;;;;1062.35;999.90;;;25.80;54.40;;;24.94;73.66;100964.53;4971764;28;20482;-64
2021/10/27 11:49:54;;;;;;;1060.03;999.42;;;25.70;53.80;;;24.84;74.32;100960.50;4970706;28;20442;-70
2021/10/27 11:52:31;;;;;;;1050.90;990.70;;;25.70;54.20;;;24.80;79.50;100962.44;4971381;28;20419;-65